createdAt,value
2022-08-19T00:02:03.649Z,14.50
2022-08-19T00:04:36.586Z,9.73
2022-08-19T00:07:06.209Z,16.95
2022-08-19T00:09:33.610Z,14.20
2022-08-19T00:12:01.494Z,12.55
2022-08-19T00:14:31.652Z,13.45
2022-08-19T00:16:58.954Z,11.75
2022-08-19T00:19:26.180Z,11.45
2022-08-19T00:21:53.546Z,9.70
2022-08-19T00:24:20.765Z,10.55
2022-08-19T00:26:47.962Z,13.45
2022-08-19T00:29:19.098Z,11.80
2022-08-19T00:31:47.310Z,13.82
2022-08-19T00:34:15.597Z,13.73
2022-08-19T00:36:43.876Z,21.03
2022-08-19T00:39:12.440Z,14.55
2022-08-19T00:44:21.378Z,13.33
2022-08-19T00:46:59.252Z,15.07
2022-08-19T00:49:36.814Z,21.08
2022-08-19T00:52:14.479Z,21.08
2022-08-19T00:54:44.037Z,19.03
2022-08-19T00:57:15.685Z,28.77
2022-08-19T00:59:56.373Z,17.65
2022-08-19T01:02:32.604Z,13.20
2022-08-19T01:05:02.851Z,14.55
2022-08-19T01:07:35.906Z,13.70
2022-08-19T01:10:14.909Z,13.00
2022-08-19T01:12:42.250Z,15.80
2022-08-19T01:15:12.870Z,15.50
2022-08-19T01:17:42.065Z,14.18
2022-08-19T01:20:19.573Z,12.07
2022-08-19T01:22:50.673Z,10.97
2022-08-19T01:25:22.279Z,10.98
2022-08-19T01:27:53.644Z,9.40
2022-08-19T01:30:28.851Z,10.93
2022-08-19T01:32:57.455Z,15.27
2022-08-19T01:35:27.169Z,19.30
2022-08-19T01:38:00.155Z,14.70
2022-08-19T01:40:33.546Z,17.88
2022-08-19T01:43:01.374Z,20.52
2022-08-19T01:45:31.848Z,11.13
2022-08-19T01:48:02.137Z,14.82
2022-08-19T01:50:34.423Z,11.13
2022-08-19T01:53:06.651Z,12.88
2022-08-19T01:55:42.312Z,14.57
2022-08-19T01:58:19.377Z,12.95
2022-08-19T02:00:48.933Z,14.60
2022-08-19T02:03:16.474Z,15.05
2022-08-19T02:05:44.565Z,14.67
2022-08-19T02:08:12.789Z,12.25
2022-08-19T02:10:43.736Z,14.93
2022-08-19T02:13:13.705Z,19.30
2022-08-19T02:15:41.678Z,14.18
2022-08-19T02:18:08.927Z,17.85
2022-08-19T02:20:37.585Z,9.73
2022-08-19T02:23:05.704Z,11.73
2022-08-19T02:25:41.672Z,10.60
2022-08-19T02:28:08.866Z,12.13
2022-08-19T02:30:36.069Z,10.70
2022-08-19T02:33:03.463Z,10.32
2022-08-19T02:35:31.468Z,9.50
2022-08-19T02:38:17.416Z,11.95
2022-08-19T02:41:04.467Z,9.90
2022-08-19T02:43:36.058Z,10.40
2022-08-19T02:46:23.285Z,11.65
2022-08-19T02:48:53.303Z,13.57
2022-08-19T02:51:24.751Z,13.43
2022-08-19T02:53:52.995Z,20.52
2022-08-19T02:56:21.447Z,10.82
2022-08-19T02:58:49.072Z,10.82
2022-08-19T03:01:32.679Z,14.95
2022-08-19T03:04:03.907Z,14.18
2022-08-19T03:06:32.060Z,11.93
2022-08-19T03:08:59.224Z,12.07
2022-08-19T03:11:31.549Z,11.90
2022-08-19T03:14:00.407Z,11.88
2022-08-19T03:16:33.227Z,13.40
2022-08-19T03:19:02.270Z,16.20
2022-08-19T03:21:33.479Z,14.70
2022-08-19T03:24:08.965Z,15.20
2022-08-19T03:26:45.800Z,12.82
2022-08-19T03:29:13.653Z,17.85
2022-08-19T03:31:52.402Z,20.20
2022-08-19T03:34:26.780Z,17.00
2022-08-19T03:36:56.855Z,16.92
2022-08-19T03:39:25.572Z,13.60
2022-08-19T03:42:32.062Z,19.17
2022-08-19T03:44:44.940Z,18.58
2022-08-19T03:47:16.481Z,17.13
2022-08-19T03:49:43.862Z,19.20
2022-08-19T03:52:11.272Z,21.83
2022-08-19T03:54:39.694Z,21.42
2022-08-19T03:57:07.991Z,21.65
2022-08-19T03:59:38.735Z,24.45
2022-08-19T04:02:13.651Z,22.80
2022-08-19T04:04:43.553Z,24.05
2022-08-19T04:07:16.022Z,18.17
2022-08-19T04:09:43.721Z,22.70
2022-08-19T04:12:10.929Z,24.87
2022-08-19T04:14:38.095Z,21.02
2022-08-19T04:17:06.124Z,18.33
2022-08-19T04:19:35.425Z,21.70
2022-08-19T04:22:04.362Z,17.52
2022-08-19T04:24:31.582Z,16.40
2022-08-19T04:27:03.054Z,22.80
2022-08-19T04:29:30.821Z,18.83
2022-08-19T04:31:59.131Z,14.40
2022-08-19T04:34:29.990Z,19.45
2022-08-19T04:36:59.155Z,25.42
2022-08-19T04:39:49.663Z,29.52
2022-08-19T04:42:37.230Z,38.95
2022-08-19T04:45:12.314Z,23.50
2022-08-19T04:47:47.698Z,24.30
2022-08-19T04:50:26.979Z,23.17
2022-08-19T04:52:55.862Z,19.48
2022-08-19T04:55:25.660Z,18.52
2022-08-19T04:57:53.920Z,22.60
2022-08-19T05:00:21.256Z,22.13
2022-08-19T05:02:49.632Z,24.00
2022-08-19T05:05:17.932Z,17.10
2022-08-19T05:07:45.078Z,18.42
2022-08-19T05:10:13.092Z,33.37
2022-08-19T05:12:40.334Z,29.23
2022-08-19T05:15:08.837Z,23.95
2022-08-19T05:17:39.054Z,41.22
2022-08-19T05:20:37.381Z,31.85
2022-08-19T05:23:13.366Z,25.15
2022-08-19T05:25:53.196Z,26.70
2022-08-19T05:28:21.098Z,20.40
2022-08-19T05:30:50.826Z,19.48
2022-08-19T05:33:19.079Z,29.15
2022-08-19T05:35:46.577Z,14.23
2022-08-19T05:40:41.891Z,15.90
2022-08-19T05:43:09.528Z,16.65
2022-08-19T05:45:42.537Z,22.38
2022-08-19T05:48:14.240Z,27.20
2022-08-19T05:50:45.662Z,29.42
2022-08-19T05:53:14.700Z,26.63
2022-08-19T05:55:42.609Z,26.63
2022-08-19T05:58:11.345Z,28.27
2022-08-19T06:00:40.374Z,29.95
2022-08-19T06:03:11.795Z,27.95
2022-08-19T06:05:49.563Z,22.60
2022-08-19T06:08:20.527Z,36.00
2022-08-19T06:11:14.184Z,27.98
2022-08-19T06:13:41.570Z,21.23
2022-08-19T06:18:35.728Z,17.48
2022-08-19T06:21:04.551Z,22.33
2022-08-19T06:23:31.825Z,18.27
2022-08-19T06:25:58.934Z,17.45
2022-08-19T06:28:26.110Z,21.77
2022-08-19T06:35:47.409Z,19.70
2022-08-19T06:45:39.433Z,11.52
2022-08-19T06:48:07.741Z,7.80
2022-08-19T06:50:34.977Z,12.77
2022-08-19T06:53:06.608Z,9.15
2022-08-19T07:00:33.142Z,10.40
2022-08-19T07:03:04.562Z,13.32
2022-08-19T07:05:45.773Z,6.22
2022-08-19T07:08:14.293Z,7.90
2022-08-19T07:10:46.149Z,11.73
2022-08-19T07:13:13.374Z,12.10
2022-08-19T07:15:41.037Z,13.95
2022-08-19T07:18:08.180Z,6.13
2022-08-19T07:20:42.233Z,8.02
2022-08-19T07:23:15.797Z,7.07
2022-08-19T07:25:53.127Z,8.23
2022-08-19T07:28:24.209Z,18.17
2022-08-19T07:30:53.019Z,13.23
2022-08-19T07:33:20.644Z,7.25
2022-08-19T07:38:16.192Z,8.30
2022-08-19T07:40:46.439Z,11.45
2022-08-19T07:43:17.047Z,8.05
2022-08-19T07:45:47.339Z,10.15
2022-08-19T07:48:14.836Z,11.30
2022-08-19T07:50:41.983Z,6.15
2022-08-19T07:53:09.165Z,9.18
2022-08-19T07:55:42.204Z,14.40
2022-08-19T07:58:14.454Z,11.65
2022-08-19T08:00:43.679Z,7.32
2022-08-19T08:03:11.606Z,8.02
2022-08-19T08:08:44.396Z,9.90
2022-08-19T08:11:15.492Z,10.50
2022-08-19T08:13:43.418Z,9.88
2022-08-19T08:16:14.159Z,13.68
2022-08-19T08:18:50.598Z,9.18
2022-08-19T08:21:18.145Z,10.00
2022-08-19T08:23:45.386Z,8.07
2022-08-19T08:26:14.680Z,8.27
2022-08-19T08:28:43.207Z,8.40
2022-08-19T08:31:15.224Z,13.48
2022-08-19T08:33:42.678Z,10.17
2022-08-19T08:36:11.213Z,8.85
2022-08-19T08:38:40.920Z,10.55
2022-08-19T08:41:37.993Z,8.63
2022-08-19T08:44:05.194Z,7.40
2022-08-19T08:46:59.392Z,8.70
2022-08-19T08:50:11.452Z,8.25
2022-08-19T08:52:47.373Z,8.63
2022-08-19T08:55:27.328Z,8.05
2022-08-19T08:58:16.388Z,7.90
2022-08-19T09:00:50.264Z,7.85
2022-08-19T09:03:27.033Z,6.72
2022-08-19T09:06:19.755Z,8.20
2022-08-19T09:09:24.430Z,7.93
2022-08-19T09:12:03.769Z,5.97
2022-08-19T09:14:52.208Z,10.65
2022-08-19T09:17:31.234Z,9.98
2022-08-19T09:20:09.173Z,10.18
2022-08-19T09:22:44.377Z,7.57
2022-08-19T09:25:17.327Z,9.85
2022-08-19T09:28:02.711Z,6.70
2022-08-19T09:30:35.236Z,7.65
2022-08-19T09:33:02.454Z,6.70
2022-08-19T09:35:30.821Z,9.83
2022-08-19T09:38:00.174Z,10.55
2022-08-19T09:40:30.236Z,12.32
2022-08-19T09:43:00.935Z,34.45
2022-08-19T09:45:29.100Z,10.75
2022-08-19T09:47:57.413Z,10.23
2022-08-19T09:50:25.142Z,5.32
2022-08-19T09:52:57.277Z,9.52
2022-08-19T09:55:31.501Z,12.38
2022-08-19T09:58:01.568Z,8.85
2022-08-19T10:00:30.547Z,8.52
2022-08-19T10:02:58.000Z,7.47
2022-08-19T10:05:43.891Z,10.13
2022-08-19T10:08:13.449Z,7.82
2022-08-19T10:10:46.880Z,7.13
2022-08-19T10:13:17.712Z,8.02
2022-08-19T10:15:47.725Z,6.47
2022-08-19T10:18:18.432Z,5.03
2022-08-19T10:20:51.559Z,6.20
2022-08-19T10:23:21.447Z,5.75
2022-08-19T10:25:49.982Z,8.38
2022-08-19T10:28:19.541Z,7.68
2022-08-19T10:30:47.972Z,6.35
2022-08-19T16:27:03.988Z,6.57
2022-08-19T16:29:34.431Z,7.25
2022-08-19T16:32:10.704Z,10.15
2022-08-19T16:34:40.783Z,25.10
2022-08-19T16:37:09.467Z,13.80
2022-08-19T16:39:37.585Z,6.60
2022-08-19T16:42:07.680Z,7.97
2022-08-19T16:44:38.635Z,7.07
2022-08-19T16:47:06.095Z,6.43
2022-08-19T16:49:53.620Z,9.45
2022-08-19T16:52:22.500Z,15.30
2022-08-19T16:54:49.645Z,5.93
2022-08-19T16:57:17.826Z,9.80
2022-08-19T16:59:48.853Z,8.63
2022-08-19T17:02:19.571Z,6.05
2022-08-19T17:04:57.539Z,7.07
2022-08-19T17:07:33.074Z,5.50
2022-08-19T17:10:03.477Z,7.82
2022-08-19T17:12:32.436Z,8.13
2022-08-19T17:15:01.920Z,6.30
2022-08-19T17:17:31.182Z,14.52
2022-08-19T17:20:00.581Z,9.57
2022-08-19T17:22:29.029Z,9.65
2022-08-19T17:24:58.418Z,11.05
2022-08-19T17:27:32.290Z,5.03
2022-08-19T17:30:01.953Z,9.30
2022-08-19T17:32:29.479Z,11.77
2022-08-19T17:34:56.586Z,6.43
2022-08-19T17:37:23.862Z,7.88
2022-08-19T17:39:51.072Z,18.70
2022-08-19T17:42:18.765Z,12.05
2022-08-19T17:44:50.900Z,9.13
2022-08-19T17:47:18.825Z,13.13
2022-08-19T17:49:46.205Z,9.05
2022-08-19T17:52:13.728Z,7.45
2022-08-19T17:54:40.887Z,9.07
2022-08-19T17:57:08.943Z,7.05
2022-08-19T17:59:39.005Z,21.63
2022-08-19T18:02:10.072Z,17.77
2022-08-19T18:04:38.336Z,11.60
2022-08-19T18:09:42.307Z,20.42
2022-08-19T18:12:12.517Z,12.35
2022-08-19T18:14:41.460Z,16.63
2022-08-19T18:17:13.067Z,9.23
2022-08-19T18:19:43.390Z,16.20
2022-08-19T18:22:35.748Z,13.70
2022-08-19T18:25:22.040Z,10.55
2022-08-19T18:27:51.195Z,12.63
2022-08-19T18:30:19.805Z,20.17
2022-08-19T18:32:51.730Z,23.70
2022-08-19T18:35:29.281Z,11.40
2022-08-19T18:38:22.169Z,6.47
2022-08-19T18:41:07.972Z,9.20
2022-08-19T18:43:53.864Z,11.88
2022-08-19T18:46:39.745Z,10.88
2022-08-19T18:49:09.803Z,14.80
2022-08-19T18:51:36.998Z,10.82
2022-08-19T18:54:04.454Z,8.48
2022-08-19T18:56:31.764Z,7.30
2022-08-19T18:59:00.939Z,21.80
2022-08-19T19:01:33.137Z,12.85
2022-08-19T19:04:05.309Z,13.25
2022-08-19T19:06:39.093Z,10.93
2022-08-19T19:09:18.993Z,11.35
2022-08-19T19:11:51.363Z,11.07
2022-08-19T19:14:47.650Z,8.77
2022-08-19T19:17:14.502Z,14.70
2022-08-19T19:19:43.327Z,12.70
2022-08-19T19:22:18.415Z,16.70
2022-08-19T19:24:46.020Z,14.57
2022-08-19T19:27:17.864Z,21.38
2022-08-19T19:29:49.683Z,18.00
2022-08-19T19:32:33.057Z,18.55
2022-08-19T19:35:05.966Z,14.13
2022-08-19T19:37:33.699Z,21.38
2022-08-19T19:40:01.067Z,18.48
2022-08-19T19:42:28.327Z,24.10
2022-08-19T19:44:55.835Z,17.50
2022-08-19T19:47:23.721Z,16.45
2022-08-19T19:57:36.786Z,11.30
2022-08-19T20:00:07.626Z,15.98
2022-08-19T20:02:34.749Z,13.98
2022-08-19T20:05:01.905Z,7.40
2022-08-19T20:07:47.832Z,17.90
2022-08-19T20:10:15.217Z,13.80
2022-08-19T20:12:42.574Z,21.70
2022-08-19T20:15:10.040Z,8.32
2022-08-19T20:17:42.048Z,14.23
2022-08-19T20:20:13.272Z,10.93
2022-08-19T20:22:42.508Z,18.75
2022-08-19T20:25:15.677Z,12.82
2022-08-19T20:27:43.526Z,17.63
2022-08-19T20:32:48.744Z,16.30
2022-08-19T20:35:19.825Z,13.93
2022-08-19T20:37:47.571Z,18.70
2022-08-19T20:40:20.080Z,15.00
2022-08-19T20:42:49.958Z,11.77
2022-08-19T20:45:33.118Z,13.18
2022-08-19T20:48:04.117Z,13.68
2022-08-19T20:50:34.580Z,12.35
2022-08-19T20:53:16.865Z,18.48
2022-08-19T20:55:51.108Z,22.95
2022-08-19T20:58:21.289Z,13.68
2022-08-19T21:00:51.025Z,14.60
2022-08-19T21:03:25.771Z,13.52
2022-08-19T21:05:55.021Z,16.95
2022-08-19T21:08:24.014Z,12.43
2022-08-19T21:10:52.543Z,12.43
2022-08-19T21:13:21.835Z,13.20
2022-08-19T21:15:49.822Z,13.90
2022-08-19T21:18:20.240Z,13.70
2022-08-19T21:20:48.482Z,17.23
2022-08-19T21:23:20.461Z,16.95
2022-08-19T21:25:54.521Z,14.50
2022-08-19T21:28:30.001Z,18.13
2022-08-19T21:31:06.156Z,11.10
2022-08-19T21:33:33.636Z,11.30
2022-08-19T21:36:02.405Z,13.50
2022-08-19T21:38:29.795Z,18.15
2022-08-19T21:40:57.153Z,13.25
2022-08-19T21:43:24.404Z,16.08
2022-08-19T21:45:51.560Z,15.75
2022-08-19T21:48:19.201Z,18.95
2022-08-19T21:50:48.442Z,15.38
2022-08-19T21:53:17.685Z,13.93
2022-08-19T21:55:48.102Z,15.50
2022-08-19T21:58:28.105Z,12.50
2022-08-19T22:01:05.167Z,18.20
2022-08-19T22:03:35.323Z,19.00
2022-08-19T22:06:02.553Z,20.60
2022-08-19T22:08:30.754Z,12.40
2022-08-19T22:11:00.858Z,18.65
2022-08-19T22:13:30.389Z,20.25
2022-08-19T22:15:57.469Z,18.85
2022-08-19T22:18:24.750Z,16.92
2022-08-19T22:20:51.906Z,12.70
2022-08-19T22:23:19.108Z,15.48
2022-08-19T22:25:47.374Z,19.95
2022-08-19T22:28:19.064Z,20.83
2022-08-19T22:30:55.478Z,22.75
2022-08-19T22:33:25.143Z,15.23
2022-08-19T22:35:53.094Z,13.20
2022-08-19T22:38:21.538Z,14.70
2022-08-19T22:40:50.825Z,20.00
2022-08-19T22:43:22.382Z,30.35
2022-08-19T22:45:52.529Z,20.52
2022-08-19T22:48:23.842Z,13.60
2022-08-19T22:51:11.393Z,13.32
2022-08-19T22:53:44.351Z,17.73
2022-08-19T22:56:15.437Z,14.00
2022-08-19T22:58:43.937Z,14.50
2022-08-19T23:01:24.897Z,15.48
2022-08-19T23:03:55.925Z,20.10
2022-08-19T23:06:23.189Z,13.30
2022-08-19T23:08:56.875Z,13.27
2022-08-19T23:11:24.024Z,13.70
2022-08-19T23:13:51.324Z,13.57
2022-08-19T23:16:18.540Z,18.70
2022-08-19T23:18:45.754Z,12.07
2022-08-19T23:21:12.908Z,12.93
2022-08-19T23:23:40.419Z,15.38
2022-08-19T23:26:11.690Z,13.75
2022-08-19T23:28:57.759Z,15.95
2022-08-19T23:31:29.111Z,12.95
2022-08-19T23:33:56.752Z,10.93
2022-08-19T23:36:24.166Z,18.47
2022-08-19T23:38:51.721Z,22.17
2022-08-19T23:41:22.545Z,14.23
2022-08-19T23:43:51.388Z,18.52
2022-08-19T23:46:28.015Z,19.90
2022-08-19T23:48:56.734Z,13.38
2022-08-19T23:51:25.982Z,12.32
2022-08-19T23:53:53.246Z,15.70
2022-08-19T23:56:20.834Z,15.93
2022-08-19T23:58:48.451Z,12.68
